CLEVELAND ARTCC (ZOB) FACILITY RUNWAY SELECTOR
METARS UPDATED AT 1246Z

Page auto refreshed every 5 minutes
FACILITYWINDVISIBILITY
CEILING
RUNWAY FLOWAPPROACHMETAR
KAGC220@1110SM
----
West Flow
DEP: 28, 31 (GA)
ARR: 28, 31 (GA)
Visual ApproachKAGC 171153Z 22011KT 10SM CLR 04/02 A3007 RMK AO2 SLP193 T00440022 10056 20044 53002
KBKL220@1310SM
----
24 Flow
DEP: 24L (GA), 24R
ARR: 24L (GA), 24R
Visual ApproachKBKL 171153Z 22013KT 10SM SCT050 07/02 A3001 RMK AO2 SLP164 T00670017 10089 20067 53006
KBUF270@1310SM
BKN060
23 Flow
DEP: 23
ARR: 23
Visual ApproachKBUF 171154Z 27013KT 10SM -RA BKN060 BKN080 OVC150 09/02 A2987 RMK AO2 RAB45 SLP117 P0000 60000 T00890022 10117 20089 52000
KCAK220@0910SM
----
South Flow
DEP: 19
ARR: 23
Visual ApproachKCAK 171151Z 22009KT 10SM FEW180 05/01 A3005 RMK AO2 SLP181 T00500011 10061 20044 53001
KCGF240@11/G1920SM
BKN050
24 Flow
DEP: 24
ARR: 24
Visual ApproachKCGF 171145Z 24011G19KT 20SM SCT025 BKN050 06/01 A3001
KCLE240@1110SM
----
North Flow
DEP: 24L
ARR: 24R
Visual ApproachKCLE 171151Z 24011KT 10SM FEW040 FEW070 07/02 A3004 RMK AO2 SLP175 T00670022 10089 20061 53005
KDTW270@0710SM
----
Calm Wind Flow
DEP: 21R, 22L
ARR: 21L, 22R
Visual ApproachKDTW 171153Z 27007KT 10SM SCT070 SCT210 06/01 A3001 RMK AO2 SLP167 T00610011 10072 20061 51018 $
KERI210@13/G22/2SM
BKN038
West Flow
DEP: 20 (GA), 24
ARR: 20 (GA), 24
Instrument ApproachKERI 171238Z 21013G22KT 2 1/2SM -RA FEW028 BKN038 OVC047 07/04 A2996 RMK AO2 RAB05 P0010 T00670039
KFNT320@0610SM
OVC065
36 Flow
DEP: 36
ARR: 36
Visual ApproachKFNT 171153Z 32006KT 10SM OVC065 05/01 A3001 RMK AO2 SLP167 T00500011 10078 20039 51016
KIAG270@1210SM
OVC080
South Flow
DEP: 28R, 28L (GA)
ARR: 28R, 28L (GA)
Visual ApproachKIAG 171153Z 27012KT 10SM OVC080 08/02 A2986 RMK AO2 SLP119 T00830017 10111 20078 52003
KJST250@1310SM
----
23 Flow
DEP: 23
ARR: 23
Visual ApproachKJST 171154Z 25013KT 10SM CLR 04/01 A3003 RMK AO2 SLP180 T00440011 10061 20039 55001
KLAN280@0610SM
BKN047
27 Flow
DEP: 27
ARR: 27
Visual ApproachKLAN 171153Z 28006KT 10SM FEW040 BKN047 OVC060 04/02 A3004 RMK AO2 SLP177 T00440022 10083 20033 51017
KPIT230@0910SM
----
West Flow
DEP: 28R, 28C
ARR: 28R, 28L, 32 (GA)
Visual ApproachKPIT 171151Z 23009KT 10SM FEW130 04/02 A3006 RMK AO2 SLP193 T00440022 10056 20044 51004
KROC240@0810SM
BKN070
22/25 Flow
DEP: 22, 25 (GA)
ARR: 22, 25 (GA)
Visual ApproachKROC 171154Z 24008KT 10SM BKN070 BKN100 08/05 A2986 RMK AO2 SLP116 ACC SW T00830050 10094 20078 53000
KTOL230@1210SM
----
25 Flow
DEP: 25
ARR: 25
Visual ApproachKTOL 171152Z 23012KT 10SM FEW050 SCT065 07/01 A3004 RMK AO2 SLP175 T00670011 10083 20061 53010
KYNG220@1010SM
----
23 Flow
DEP: 23
ARR: 23
Visual ApproachKYNG 171151Z 22010KT 10SM FEW060 05/02 A3001 RMK AO2 SLP167 T00500017 10061 20044 50001
NOTE: Runway selection based on current VATSIM metar and ZOB SOPs.
Ceiling = Lowest reported ceiling.
GA = General Aviation aircraft only.
METAR Decode Key